Polegate, United Kingdom
Current Conditions -  °F | °C
As of 7:50 PM on Thursday 20 Nov 2014 (Local Time) from EGKA Reporting Station
Scattered Clouds Scattered Clouds  
Wind Chill: 44°   Ceiling: Unl
Heat Index: 46°   Visibility: 4mi
Dew Point: 45°   Wind: 5mph
Humidity: 93%   Direction: 60°ENE
Pressure: 30.21"   Gusts: NA
Location:  50.82°N, 0.24°E
Report Text: EGKA 201950Z 06004KT 6000 SCT035 08/07 Q1023
Loading
Personal Weather Stations






























Interactive Weather Map New forecast layout! Learn more

10-Day Weather Forecast

Advertisements
Track Severe Weather on mobile